Jamestown, Canada
Current Conditions -  °F | °C
As of 3:00 AM on Tuesday 21 Oct 2014 (Local Time) from CYQX Reporting Station
Few Clouds Few Clouds  
Wind Chill: 31°   Ceiling: Unl
Heat Index: 41°   Visibility: 20mi
Dew Point: 34°   Wind: 23mph
Humidity: 76%   Direction: 220°SW
Pressure: 29.62"   Gusts: 33mph
Location:  48.43°N, 53.8°W
Report Text: CYQX 210500Z 22020G29KT 20SM FEW032 05/01 A2962 RMK SC2 SLP034
Loading
Personal Weather Stations






























Interactive Weather Map New forecast layout! Learn more

10-Day Weather Forecast

Advertisements
Track Severe Weather on mobile